< < Back
Terminal Aerodrome Forecast


Current Version              Previous Versions:   1  2  3  4  5  6  7  8  9  

Terminal Aerodrome Forecast

498
FTUS42 KCHS 252334
TAFCHS
TAF
KCHS 252334Z 2600/2624 09004KT P6SM BKN200
     FM260800 07004KT P6SM SCT025 BKN050
      TEMPO 2609/2612 BKN025
     FM261400 07007KT P6SM SCT025 BKN035
     FM261800 12008KT P6SM SCT040 BKN070=



Latest METAR

252
SAUS80 KWBC 260300 RRB
MTRCHS
METAR KCHS 260256Z 07004KT 10SM FEW025 24/22 A3008 RMK AO2 SLP184
T02390217 50007


USA.gov is the U.S. government's official web portal to all federal, state and local government web resources and services.